createdAt,value
2016-06-17T00:00:03.885Z,0
2016-06-17T00:01:03.748Z,0
2016-06-17T00:02:05.017Z,0
2016-06-17T00:03:03.911Z,0
2016-06-17T00:04:05.149Z,0
2016-06-17T00:05:03.934Z,0
2016-06-17T00:06:04.890Z,0
2016-06-17T00:07:03.800Z,0
2016-06-17T00:08:03.788Z,0
2016-06-17T00:09:03.963Z,0
2016-06-17T00:10:03.967Z,0
2016-06-17T00:11:03.985Z,0
2016-06-17T00:12:03.974Z,0
2016-06-17T00:13:05.133Z,0
2016-06-17T00:14:03.839Z,0
2016-06-17T00:15:05.921Z,0
2016-06-17T00:16:03.691Z,0
2016-06-17T00:17:04.866Z,0
2016-06-17T00:18:04.009Z,0
2016-06-17T00:19:04.029Z,0
2016-06-17T00:20:03.720Z,0
2016-06-17T00:21:04.020Z,0
2016-06-17T00:22:04.055Z,0
2016-06-17T00:23:03.902Z,0
2016-06-17T00:24:05.109Z,0
2016-06-17T00:25:04.066Z,0
2016-06-17T00:26:05.209Z,0
2016-06-17T00:27:03.760Z,0
2016-06-17T00:28:04.935Z,0
2016-06-17T00:29:03.922Z,0
2016-06-17T00:30:04.114Z,0
2016-06-17T00:31:04.117Z,0
2016-06-17T00:32:03.793Z,0
2016-06-17T00:33:04.108Z,0
2016-06-17T00:34:04.128Z,0
2016-06-17T00:35:04.928Z,0
2016-06-17T00:36:03.979Z,0
2016-06-17T00:37:05.232Z,0
2016-06-17T00:38:04.142Z,0
2016-06-17T00:39:05.020Z,0
2016-06-17T00:40:04.007Z,0
2016-06-17T00:41:04.152Z,0
2016-06-17T00:42:04.172Z,0
2016-06-17T00:43:04.175Z,0
2016-06-17T00:44:04.037Z,0
2016-06-17T00:45:04.196Z,0
2016-06-17T00:46:04.466Z,0
2016-06-17T00:47:04.048Z,0
2016-06-17T00:48:05.629Z,0
2016-06-17T00:49:04.210Z,0
2016-06-17T00:50:05.354Z,0
2016-06-17T00:51:04.279Z,0
2016-06-17T00:52:04.079Z,0
2016-06-17T00:53:04.253Z,0
2016-06-17T00:54:03.944Z,0
2016-06-17T00:55:04.244Z,0
2016-06-17T00:56:03.950Z,0
2016-06-17T00:57:05.235Z,0
2016-06-17T00:58:04.269Z,0
2016-06-17T00:59:04.977Z,0
2016-06-17T01:00:04.136Z,0
2016-06-17T01:01:04.154Z,0
2016-06-17T01:02:04.299Z,0
2016-06-17T01:03:04.333Z,0
2016-06-17T01:04:04.008Z,0
2016-06-17T01:05:04.012Z,0
2016-06-17T01:06:04.172Z,0
2016-06-17T01:07:04.175Z,0
2016-06-17T01:08:04.023Z,0
2016-06-17T01:09:04.339Z,0
2016-06-17T01:10:05.154Z,0
2016-06-17T01:11:04.361Z,0
2016-06-17T01:12:04.364Z,0
2016-06-17T01:13:04.211Z,0
2016-06-17T01:14:04.371Z,0
2016-06-17T01:15:04.063Z,0
2016-06-17T01:16:04.394Z,0
2016-06-17T01:17:04.241Z,0
2016-06-17T01:18:04.401Z,0
2016-06-17T01:19:04.451Z,0
2016-06-17T01:20:04.408Z,0
2016-06-17T01:21:05.459Z,0
2016-06-17T01:22:04.430Z,0
2016-06-17T01:23:04.435Z,0
2016-06-17T01:24:04.452Z,0
2016-06-17T01:25:04.456Z,0
2016-06-17T01:26:04.445Z,0
2016-06-17T01:27:03.994Z,0
2016-06-17T01:28:04.310Z,0
2016-06-17T01:29:04.470Z,0
2016-06-17T01:30:05.442Z,0
2016-06-17T01:31:04.337Z,0
2016-06-17T01:32:05.278Z,0
2016-06-17T01:33:04.499Z,0
2016-06-17T01:34:04.518Z,0
2016-06-17T01:35:04.038Z,0
2016-06-17T01:36:04.355Z,0
2016-06-17T01:37:04.514Z,0
2016-06-17T01:38:04.221Z,0
2016-06-17T01:39:04.535Z,0
2016-06-17T01:40:04.539Z,0
2016-06-17T01:41:04.200Z,0
2016-06-17T01:42:04.406Z,0
2016-06-17T01:43:05.691Z,0
2016-06-17T01:44:04.553Z,0
2016-06-17T01:45:04.572Z,0
2016-06-17T01:46:04.279Z,0
2016-06-17T01:47:04.596Z,0
2016-06-17T01:48:04.441Z,0
2016-06-17T01:49:04.289Z,0
2016-06-17T01:50:04.403Z,0
2016-06-17T01:51:04.671Z,0
2016-06-17T01:52:04.472Z,0
2016-06-17T01:53:04.319Z,0
2016-06-17T01:54:05.416Z,0
2016-06-17T01:55:04.654Z,0
2016-06-17T01:56:04.644Z,0
2016-06-17T01:57:04.509Z,0
2016-06-17T01:58:04.669Z,0
2016-06-17T01:59:04.674Z,0
2016-06-17T02:00:04.679Z,0
2016-06-17T02:01:04.538Z,0
2016-06-17T02:02:04.703Z,0
2016-06-17T02:03:04.707Z,0
2016-06-17T02:04:04.710Z,0
2016-06-17T02:05:05.542Z,0
2016-06-17T02:06:04.729Z,0
2016-06-17T02:07:04.733Z,0
2016-06-17T02:08:04.737Z,0
2016-06-17T02:09:04.772Z,0
2016-06-17T02:10:04.760Z,0
2016-06-17T02:11:04.764Z,0
2016-06-17T02:12:04.768Z,0
2016-06-17T02:13:04.756Z,0
2016-06-17T02:14:05.700Z,0
2016-06-17T02:15:04.778Z,0
2016-06-17T02:16:05.222Z,0
2016-06-17T02:17:04.800Z,0
2016-06-17T02:18:04.789Z,0
2016-06-17T02:19:04.807Z,0
2016-06-17T02:20:04.810Z,0
2016-06-17T02:21:04.814Z,0
2016-06-17T02:22:04.818Z,0
2016-06-17T02:23:04.836Z,0
2016-06-17T02:24:04.856Z,0
2016-06-17T02:25:05.660Z,0
2016-06-17T02:26:04.722Z,0
2016-06-17T02:27:05.445Z,0
2016-06-17T02:28:04.871Z,0
2016-06-17T02:29:04.732Z,0
2016-06-17T02:30:04.564Z,0
2016-06-17T02:31:04.724Z,0
2016-06-17T02:32:04.712Z,0
2016-06-17T02:33:04.575Z,0
2016-06-17T02:34:04.905Z,0
2016-06-17T02:35:04.909Z,0
2016-06-17T02:36:05.554Z,0
2016-06-17T02:37:04.917Z,0
2016-06-17T02:38:06.580Z,0
2016-06-17T02:39:04.939Z,0
2016-06-17T02:40:04.787Z,0
2016-06-17T02:41:04.790Z,0
2016-06-17T02:42:04.950Z,0
2016-06-17T02:43:04.797Z,0
2016-06-17T02:44:04.800Z,0
2016-06-17T02:45:04.960Z,0
2016-06-17T02:46:04.667Z,0
2016-06-17T02:47:05.779Z,0
2016-06-17T02:48:04.970Z,0
2016-06-17T02:49:05.755Z,0
2016-06-17T02:50:04.852Z,0
2016-06-17T02:51:04.950Z,0
2016-06-17T02:52:05.000Z,0
2016-06-17T02:53:05.018Z,0
2016-06-17T02:54:05.038Z,0
2016-06-17T02:55:04.729Z,0
2016-06-17T02:56:05.029Z,0
2016-06-17T02:57:04.720Z,0
2016-06-17T02:58:05.708Z,0
2016-06-17T02:59:05.039Z,0
2016-06-17T03:00:05.934Z,0
2016-06-17T03:01:05.077Z,0
2016-06-17T03:02:05.066Z,0
2016-06-17T03:03:05.084Z,0
2016-06-17T03:04:04.979Z,0
2016-06-17T03:05:04.951Z,0
2016-06-17T03:06:05.095Z,0
2016-06-17T03:07:04.958Z,0
2016-06-17T03:08:05.101Z,0
2016-06-17T03:09:04.949Z,0
2016-06-17T03:10:04.812Z,0
2016-06-17T03:11:06.175Z,0
2016-06-17T03:12:05.131Z,0
2016-06-17T03:13:05.151Z,0
2016-06-17T03:14:05.154Z,0
2016-06-17T03:15:05.158Z,0
2016-06-17T03:16:05.161Z,0
2016-06-17T03:17:05.149Z,0
2016-06-17T03:18:05.183Z,0
2016-06-17T03:19:05.014Z,0
2016-06-17T03:20:05.284Z,0
2016-06-17T03:21:05.193Z,0
2016-06-17T03:22:06.322Z,0
2016-06-17T03:23:05.201Z,0
2016-06-17T03:24:05.204Z,0
2016-06-17T03:25:05.223Z,0
2016-06-17T03:26:05.211Z,0
2016-06-17T03:27:05.230Z,0
2016-06-17T03:28:05.234Z,0
2016-06-17T03:29:05.253Z,0
2016-06-17T03:30:05.116Z,0
2016-06-17T03:31:05.353Z,0
2016-06-17T03:32:05.091Z,0
2016-06-17T03:33:06.298Z,0
2016-06-17T03:34:05.270Z,0
2016-06-17T03:35:05.288Z,0
2016-06-17T03:36:05.153Z,0
2016-06-17T03:37:05.295Z,0
2016-06-17T03:38:05.299Z,0
2016-06-17T03:39:05.131Z,0
2016-06-17T03:40:05.307Z,0
2016-06-17T03:41:05.309Z,0
2016-06-17T03:42:05.313Z,0
2016-06-17T03:43:05.176Z,0
2016-06-17T03:44:06.273Z,0
2016-06-17T03:45:05.027Z,0
2016-06-17T03:46:05.343Z,0
2016-06-17T03:47:05.050Z,0
2016-06-17T03:48:05.350Z,5
2016-06-17T03:49:05.354Z,5
2016-06-17T03:50:05.387Z,5
2016-06-17T03:51:05.438Z,5
2016-06-17T03:52:05.270Z,5
2016-06-17T03:53:05.148Z,5
2016-06-17T03:54:05.261Z,5
2016-06-17T03:55:05.952Z,5
2016-06-17T03:56:05.252Z,5
2016-06-17T03:57:05.568Z,5
2016-06-17T03:58:05.291Z,5
2016-06-17T03:59:05.122Z,5
2016-06-17T04:00:05.281Z,5
2016-06-17T04:01:05.457Z,5
2016-06-17T04:02:05.445Z,5
2016-06-17T04:03:05.464Z,5
2016-06-17T04:04:05.467Z,5
2016-06-17T04:05:05.455Z,5
2016-06-17T04:06:06.709Z,5
2016-06-17T04:07:05.494Z,5
2016-06-17T04:08:05.481Z,5
2016-06-17T04:09:05.484Z,5
2016-06-17T04:10:05.488Z,5
2016-06-17T04:11:05.351Z,5
2016-06-17T04:12:05.511Z,5
2016-06-17T04:13:05.517Z,0
2016-06-17T04:14:05.368Z,0
2016-06-17T04:15:05.593Z,0
2016-06-17T04:16:05.397Z,0
2016-06-17T04:17:06.091Z,0
2016-06-17T04:18:05.566Z,0
2016-06-17T04:19:05.773Z,0
2016-06-17T04:20:05.434Z,0
2016-06-17T04:21:05.594Z,5
2016-06-17T04:22:05.599Z,5
2016-06-17T04:23:05.604Z,5
2016-06-17T04:24:05.451Z,5
2016-06-17T04:25:05.627Z,5
2016-06-17T04:26:05.881Z,5
2016-06-17T04:27:05.634Z,5
2016-06-17T04:28:06.185Z,5
2016-06-17T04:29:05.501Z,5
2016-06-17T04:30:05.849Z,5
2016-06-17T04:31:05.681Z,5
2016-06-17T04:32:05.668Z,5
2016-06-17T04:33:05.658Z,5
2016-06-17T04:34:05.675Z,5
2016-06-17T04:35:05.679Z,5
2016-06-17T04:36:05.558Z,5
2016-06-17T04:37:06.094Z,5
2016-06-17T04:38:05.705Z,10
2016-06-17T04:39:06.381Z,15
2016-06-17T04:40:05.712Z,15
2016-06-17T04:41:06.029Z,10
2016-06-17T04:42:05.579Z,10
2016-06-17T04:43:05.566Z,15
2016-06-17T04:44:05.429Z,15
2016-06-17T04:45:05.745Z,15
2016-06-17T04:46:05.750Z,15
2016-06-17T04:47:05.768Z,15
2016-06-17T04:48:06.179Z,15
2016-06-17T04:49:05.602Z,15
2016-06-17T04:50:06.731Z,15
2016-06-17T04:51:05.844Z,15
2016-06-17T04:52:06.285Z,15
2016-06-17T04:53:05.649Z,20
2016-06-17T04:54:05.495Z,20
2016-06-17T04:55:05.811Z,20
2016-06-17T04:56:05.799Z,25
2016-06-17T04:57:05.663Z,15
2016-06-17T04:58:05.666Z,15
2016-06-17T04:59:06.482Z,15
2016-06-17T05:00:05.547Z,15
2016-06-17T05:01:06.801Z,20
2016-06-17T05:02:05.711Z,30
2016-06-17T05:03:06.417Z,35
2016-06-17T05:04:05.874Z,50
2016-06-17T05:05:05.862Z,45
2016-06-17T05:06:05.724Z,60
2016-06-17T05:07:05.744Z,35
2016-06-17T05:08:05.748Z,20
2016-06-17T05:09:05.735Z,15
2016-06-17T05:10:06.614Z,15
2016-06-17T05:11:05.600Z,15
2016-06-17T05:12:06.901Z,20
2016-06-17T05:13:05.780Z,20
2016-06-17T05:14:06.533Z,30
2016-06-17T05:15:05.787Z,35
2016-06-17T05:16:05.790Z,25
2016-06-17T05:17:05.793Z,25
2016-06-17T05:18:05.953Z,20
2016-06-17T05:19:05.956Z,15
2016-06-17T05:20:05.976Z,15
2016-06-17T05:21:06.480Z,10
2016-06-17T05:22:05.841Z,10
2016-06-17T05:23:06.783Z,10
2016-06-17T05:24:05.833Z,10
2016-06-17T05:25:06.399Z,5
2016-06-17T05:26:06.185Z,5
2016-06-17T05:27:05.859Z,5
2016-06-17T05:28:06.020Z,5
2016-06-17T05:29:05.882Z,5
2016-06-17T05:30:05.886Z,0
2016-06-17T05:31:05.889Z,0
2016-06-17T05:32:06.862Z,5
2016-06-17T05:33:06.052Z,5
2016-06-17T05:34:06.977Z,5
2016-06-17T05:35:06.075Z,10
2016-06-17T05:36:06.625Z,10
2016-06-17T05:37:05.926Z,15
2016-06-17T05:38:06.085Z,15
2016-06-17T05:39:06.089Z,15
2016-06-17T05:40:05.951Z,15
2016-06-17T05:41:05.939Z,15
2016-06-17T05:42:05.958Z,20
2016-06-17T05:43:06.961Z,25
2016-06-17T05:44:05.825Z,25
2016-06-17T05:45:07.296Z,35
2016-06-17T05:46:06.129Z,45
2016-06-17T05:47:06.835Z,45
2016-06-17T05:48:05.995Z,40
2016-06-17T05:49:05.998Z,40
2016-06-17T05:50:06.158Z,40
2016-06-17T05:51:06.005Z,40
2016-06-17T05:52:06.227Z,45
2016-06-17T05:53:06.121Z,55
2016-06-17T05:54:07.234Z,65
2016-06-17T05:55:06.206Z,70
2016-06-17T05:56:06.053Z,70
2016-06-17T05:57:05.901Z,60
2016-06-17T05:58:07.154Z,45
2016-06-17T05:59:06.219Z,40
2016-06-17T06:00:06.240Z,40
2016-06-17T06:01:06.258Z,40
2016-06-17T06:02:06.246Z,45
2016-06-17T06:03:06.250Z,45
2016-06-17T06:04:06.097Z,50
2016-06-17T06:05:06.756Z,50
2016-06-17T06:06:06.275Z,45
2016-06-17T06:07:06.466Z,40
2016-06-17T06:08:06.283Z,45
2016-06-17T06:09:07.240Z,45
2016-06-17T06:10:06.132Z,40
2016-06-17T06:11:06.152Z,35
2016-06-17T06:12:06.311Z,35
2016-06-17T06:13:06.315Z,30
2016-06-17T06:14:06.147Z,30
2016-06-17T06:15:06.166Z,30
2016-06-17T06:16:06.857Z,25
2016-06-17T06:17:06.189Z,20
2016-06-17T06:18:06.739Z,25
2016-06-17T06:19:06.196Z,25
2016-06-17T06:20:06.840Z,25
2016-06-17T06:21:06.217Z,25
2016-06-17T06:22:06.222Z,20
2016-06-17T06:23:06.381Z,20
2016-06-17T06:24:06.072Z,20
2016-06-17T06:25:06.420Z,20
2016-06-17T06:26:06.392Z,20
2016-06-17T06:27:07.521Z,20
2016-06-17T06:28:06.399Z,25
2016-06-17T06:29:07.153Z,25
2016-06-17T06:30:06.426Z,25
2016-06-17T06:31:07.404Z,20
2016-06-17T06:32:06.474Z,25
2016-06-17T06:33:06.452Z,25
2016-06-17T06:34:06.460Z,20
2016-06-17T06:35:06.481Z,15
2016-06-17T06:36:06.486Z,15
2016-06-17T06:37:06.491Z,10
2016-06-17T06:38:06.932Z,10
2016-06-17T06:39:06.516Z,15
2016-06-17T06:40:07.317Z,10
2016-06-17T06:41:06.525Z,10
2016-06-17T06:42:07.497Z,10
2016-06-17T06:43:06.549Z,10
2016-06-17T06:44:06.553Z,15
2016-06-17T06:45:06.556Z,20
2016-06-17T06:46:06.576Z,20
2016-06-17T06:47:06.407Z,20
2016-06-17T06:48:06.270Z,20
2016-06-17T06:49:07.179Z,25
2016-06-17T06:50:06.589Z,25
2016-06-17T06:51:07.702Z,20
2016-06-17T06:52:06.596Z,20
2016-06-17T06:53:06.553Z,20
2016-06-17T06:54:06.604Z,20
2016-06-17T06:55:06.669Z,15
2016-06-17T06:56:06.626Z,15
2016-06-17T06:57:06.488Z,15
2016-06-17T06:58:06.476Z,15
2016-06-17T06:59:06.496Z,10
2016-06-17T07:00:07.202Z,10
2016-06-17T07:01:06.346Z,10
2016-06-17T07:02:07.709Z,10
2016-06-17T07:03:06.509Z,10
2016-06-17T07:04:06.512Z,10
2016-06-17T07:05:06.672Z,10
2016-06-17T07:06:06.676Z,15
2016-06-17T07:07:06.696Z,15
2016-06-17T07:08:06.541Z,15
2016-06-17T07:09:06.702Z,15
2016-06-17T07:10:06.720Z,15
2016-06-17T07:11:07.693Z,15
2016-06-17T07:12:06.572Z,15
2016-06-17T07:13:07.419Z,15
2016-06-17T07:14:06.579Z,20
2016-06-17T07:15:06.598Z,20
2016-06-17T07:16:06.616Z,20
2016-06-17T07:17:06.761Z,20
2016-06-17T07:18:06.609Z,20
2016-06-17T07:19:06.767Z,20
2016-06-17T07:20:06.631Z,20
2016-06-17T07:21:06.477Z,25
2016-06-17T07:22:07.606Z,25
2016-06-17T07:23:06.797Z,20
2016-06-17T07:24:07.567Z,25
2016-06-17T07:25:06.664Z,25
2016-06-17T07:26:06.667Z,25
2016-06-17T07:27:06.826Z,25
2016-06-17T07:28:06.674Z,25
2016-06-17T07:29:06.725Z,30
2016-06-17T07:30:06.695Z,40
2016-06-17T07:31:06.732Z,45
2016-06-17T07:32:06.843Z,45
2016-06-17T07:33:06.706Z,55
2016-06-17T07:34:06.851Z,60
2016-06-17T07:35:07.761Z,65
2016-06-17T07:36:06.749Z,85
2016-06-17T07:37:06.752Z,75
2016-06-17T07:38:06.739Z,65
2016-06-17T07:39:06.899Z,60
2016-06-17T07:40:06.887Z,60
2016-06-17T07:41:06.750Z,60
2016-06-17T07:42:06.910Z,65
2016-06-17T07:43:06.772Z,65
2016-06-17T07:44:06.994Z,70
2016-06-17T07:45:06.795Z,70
2016-06-17T07:46:07.986Z,70
2016-06-17T07:47:06.959Z,70
2016-06-17T07:48:06.946Z,70
2016-06-17T07:49:06.809Z,70
2016-06-17T07:50:06.828Z,65
2016-06-17T07:51:06.847Z,65
2016-06-17T07:52:06.851Z,65
2016-06-17T07:53:06.839Z,65
2016-06-17T07:54:07.092Z,60
2016-06-17T07:55:07.423Z,55
2016-06-17T07:56:06.865Z,55
2016-06-17T07:57:08.211Z,50
2016-06-17T07:58:06.872Z,45
2016-06-17T07:59:07.234Z,40
2016-06-17T08:00:07.066Z,40
2016-06-17T08:04:58.146Z,45
2016-06-17T08:05:10.131Z,45
2016-06-17T08:06:08.463Z,50
2016-06-17T08:07:07.856Z,55
2016-06-17T08:08:10.891Z,60
2016-06-17T08:09:09.113Z,60
2016-06-17T08:10:08.491Z,60
2016-06-17T08:11:07.870Z,65
2016-06-17T08:12:09.140Z,65
2016-06-17T08:13:08.517Z,65
2016-06-17T08:14:07.911Z,65
2016-06-17T08:15:08.524Z,70
2016-06-17T08:16:07.903Z,70
2016-06-17T08:17:09.046Z,75
2016-06-17T08:18:07.910Z,80
2016-06-17T08:19:09.164Z,85
2016-06-17T08:20:09.807Z,105
2016-06-17T08:21:07.935Z,110
2016-06-17T08:22:08.299Z,95
2016-06-17T08:23:08.614Z,100
2016-06-17T08:24:08.743Z,100
2016-06-17T08:25:18.231Z,105
2016-06-17T08:26:09.219Z,135
2016-06-17T08:27:08.597Z,110
2016-06-17T08:28:09.351Z,110
2016-06-17T08:29:09.229Z,95
2016-06-17T08:30:11.311Z,80
2016-06-17T08:31:09.236Z,75
2016-06-17T08:32:10.209Z,70
2016-06-17T08:33:08.635Z,55
2016-06-17T08:34:08.060Z,50
2016-06-17T08:35:08.673Z,45
2016-06-17T08:36:08.066Z,35
2016-06-17T08:37:08.663Z,35
2016-06-17T08:38:10.527Z,30
2016-06-17T08:39:08.795Z,30
2016-06-17T08:40:09.940Z,25
2016-06-17T08:41:11.334Z,25
2016-06-17T08:42:08.680Z,20
2016-06-17T08:43:08.700Z,20
2016-06-17T08:44:08.703Z,20
2016-06-17T08:44:21.203Z,65
2016-06-17T08:44:31.484Z,65
2016-06-17T08:45:30.863Z,80
2016-06-17T08:46:30.882Z,80
2016-06-17T08:47:30.949Z,70
2016-06-17T08:48:31.718Z,70
2016-06-17T08:49:30.284Z,75
2016-06-17T08:50:31.584Z,70
2016-06-17T08:51:30.948Z,65
2016-06-17T08:52:30.936Z,60
2016-06-17T08:53:30.924Z,55
2016-06-17T08:54:31.551Z,45
2016-06-17T08:55:31.555Z,40
2016-06-17T08:56:30.325Z,45
2016-06-17T08:57:31.609Z,50
2016-06-17T08:58:31.599Z,65
2016-06-17T08:59:31.882Z,80
2016-06-17T09:00:31.652Z,70
2016-06-17T09:01:34.326Z,70
2016-06-17T09:02:31.612Z,65
2016-06-17T09:03:31.616Z,70
2016-06-17T09:04:30.384Z,65
2016-06-17T09:05:30.998Z,75
2016-06-17T09:06:31.626Z,90
2016-06-17T09:07:31.051Z,90
2016-06-17T09:08:30.414Z,95
2016-06-17T09:16:30.392Z,55
2016-06-17T09:17:31.615Z,60
2016-06-17T09:24:28.754Z,60
2016-06-17T09:25:27.538Z,65
2016-06-17T09:26:27.573Z,65
2016-06-17T09:27:29.593Z,65
2016-06-17T09:28:29.596Z,65
2016-06-17T09:29:28.584Z,70
2016-06-17T09:30:28.212Z,65
2016-06-17T09:31:28.199Z,65
2016-06-17T09:32:27.594Z,60
2016-06-17T09:33:28.223Z,60
2016-06-17T09:34:28.210Z,45
2016-06-17T09:35:28.214Z,40
2016-06-17T09:36:29.452Z,40
2016-06-17T09:37:28.252Z,40
2016-06-17T09:38:29.943Z,45
2016-06-17T09:39:29.494Z,45
2016-06-17T09:40:28.950Z,45
2016-06-17T09:41:27.643Z,35
2016-06-17T09:42:28.256Z,30
2016-06-17T09:43:28.292Z,25
2016-06-17T09:44:28.907Z,15
2016-06-17T09:45:27.662Z,15
2016-06-17T09:46:28.291Z,10
2016-06-17T09:47:28.310Z,10
2016-06-17T09:48:28.923Z,5
2016-06-17T09:49:30.365Z,5
2016-06-17T09:50:30.196Z,10
2016-06-17T09:51:29.435Z,10
2016-06-17T09:52:28.344Z,10
2016-06-17T09:53:27.770Z,15
2016-06-17T09:54:28.351Z,15
2016-06-17T09:55:29.027Z,20
2016-06-17T09:56:29.030Z,25
2016-06-17T09:57:27.736Z,30
2016-06-17T09:58:28.384Z,40
2016-06-17T09:59:27.780Z,50
2016-06-17T10:00:27.879Z,65
2016-06-17T10:01:28.417Z,80
2016-06-17T10:02:30.485Z,110
2016-06-17T10:03:28.427Z,115
2016-06-17T10:04:28.432Z,120
2016-06-17T10:05:28.436Z,120
2016-06-17T10:06:29.050Z,115
2016-06-17T10:07:29.069Z,110
2016-06-17T10:08:28.447Z,100
2016-06-17T10:09:29.077Z,75
2016-06-17T10:10:28.472Z,60
2016-06-17T10:11:28.054Z,45
2016-06-17T10:12:29.104Z,35
2016-06-17T10:13:30.436Z,20
2016-06-17T10:14:28.501Z,15
2016-06-17T10:15:29.116Z,15
2016-06-17T10:16:28.526Z,15
2016-06-17T10:17:27.921Z,20
2016-06-17T10:18:28.534Z,35
2016-06-17T10:19:28.538Z,45
2016-06-17T10:20:29.151Z,65
2016-06-17T10:21:29.171Z,70
2016-06-17T10:22:31.113Z,70
2016-06-17T10:23:28.570Z,75
2016-06-17T10:24:27.964Z,85
2016-06-17T10:25:29.217Z,115
2016-06-17T10:26:29.845Z,115
2016-06-17T10:27:28.584Z,110
2016-06-17T10:28:29.228Z,125
2016-06-17T10:29:28.606Z,120
2016-06-17T10:30:28.625Z,125
2016-06-17T10:31:28.707Z,105
2016-06-17T10:32:29.257Z,95
2016-06-17T10:33:29.322Z,70
2016-06-17T10:34:28.639Z,35
2016-06-17T10:35:28.284Z,20
2016-06-17T10:36:28.646Z,10
2016-06-17T10:37:28.025Z,10
2016-06-17T10:38:29.278Z,10
2016-06-17T10:39:29.282Z,10
2016-06-17T10:40:28.676Z,10
2016-06-17T10:41:29.304Z,10
2016-06-17T10:42:29.479Z,10
2016-06-17T10:43:29.327Z,15
2016-06-17T10:44:29.330Z,15
2016-06-17T10:45:28.708Z,20
2016-06-17T10:46:30.697Z,20
2016-06-17T10:47:29.340Z,25
2016-06-17T10:48:29.343Z,25
2016-06-17T10:49:28.114Z,30
2016-06-17T10:50:28.743Z,30
2016-06-17T10:51:28.762Z,40
2016-06-17T10:52:29.376Z,45
2016-06-17T10:53:28.645Z,45
2016-06-17T10:54:28.213Z,55
2016-06-17T10:55:29.388Z,60
2016-06-17T10:56:29.453Z,65
2016-06-17T10:57:28.722Z,70
2016-06-17T10:58:28.834Z,75
2016-06-17T10:59:28.198Z,75
2016-06-17T11:00:28.811Z,70
2016-06-17T11:01:28.814Z,65
2016-06-17T11:02:28.865Z,65
2016-06-17T11:03:28.837Z,65
2016-06-17T11:04:29.371Z,60
2016-06-17T11:05:28.829Z,60
2016-06-17T11:06:29.472Z,65
2016-06-17T11:07:28.863Z,65
2016-06-17T11:08:28.741Z,70
2016-06-17T11:09:28.243Z,80
2016-06-17T11:10:29.496Z,85
2016-06-17T11:11:29.484Z,85
2016-06-17T11:12:29.534Z,80
2016-06-17T11:13:28.271Z,80
2016-06-17T11:14:28.290Z,80
2016-06-17T11:15:28.980Z,80
2016-06-17T11:16:28.905Z,75
2016-06-17T11:17:29.628Z,70
2016-06-17T11:18:29.553Z,70
2016-06-17T11:19:29.244Z,75
2016-06-17T11:20:28.311Z,75
2016-06-17T11:21:29.547Z,75
2016-06-17T11:22:28.348Z,75
2016-06-17T11:23:28.961Z,65
2016-06-17T11:24:28.949Z,60
2016-06-17T11:25:29.062Z,60
2016-06-17T11:26:30.737Z,55
2016-06-17T11:27:28.365Z,60
2016-06-17T11:28:29.963Z,65
2016-06-17T11:29:28.997Z,60
2016-06-17T11:30:29.735Z,60
2016-06-17T11:31:29.004Z,60
2016-06-17T11:32:28.382Z,55
2016-06-17T11:33:29.012Z,55
2016-06-17T11:34:28.405Z,55
2016-06-17T11:35:29.018Z,60
2016-06-17T11:36:29.022Z,70
2016-06-17T11:37:30.447Z,70
2016-06-17T11:38:29.044Z,80
2016-06-17T11:39:30.392Z,80
2016-06-17T11:40:29.066Z,75
2016-06-17T11:41:30.054Z,75
2016-06-17T11:42:28.447Z,85
2016-06-17T11:43:29.075Z,80
2016-06-17T11:44:29.095Z,80
2016-06-17T11:45:30.332Z,75
2016-06-17T11:46:28.507Z,80
2016-06-17T11:47:29.087Z,90
2016-06-17T11:48:29.091Z,80
2016-06-17T11:49:29.094Z,80
2016-06-17T11:50:28.738Z,80
2016-06-17T11:51:29.132Z,80
2016-06-17T11:52:30.729Z,80
2016-06-17T11:53:30.451Z,80
2016-06-17T11:54:28.564Z,80
2016-06-17T11:55:29.131Z,85
2016-06-17T11:56:29.134Z,85
2016-06-17T11:57:30.403Z,80
2016-06-17T11:58:30.500Z,80
2016-06-17T11:59:29.175Z,80
2016-06-17T12:00:30.398Z,85
2016-06-17T12:01:29.338Z,90
2016-06-17T12:02:29.155Z,95
2016-06-17T12:03:31.190Z,100
2016-06-17T12:04:28.552Z,105
2016-06-17T12:05:29.805Z,100
2016-06-17T12:06:29.825Z,100
2016-06-17T12:07:29.187Z,95
2016-06-17T12:08:29.832Z,90
2016-06-17T12:09:29.835Z,90
2016-06-17T12:10:29.355Z,90
2016-06-17T12:11:29.233Z,95
2016-06-17T12:12:29.767Z,90
2016-06-17T12:13:29.240Z,100
2016-06-17T12:14:28.822Z,90
2016-06-17T12:15:28.610Z,95
2016-06-17T12:16:28.616Z,95
2016-06-17T12:17:29.872Z,95
2016-06-17T12:18:29.270Z,95
2016-06-17T12:19:29.274Z,100
2016-06-17T12:20:28.655Z,95
2016-06-17T12:21:29.815Z,95
2016-06-17T12:22:29.960Z,95
2016-06-17T12:23:30.183Z,95
2016-06-17T12:24:30.547Z,100
2016-06-17T12:25:29.097Z,110
2016-06-17T12:26:28.695Z,110
2016-06-17T12:27:30.559Z,105
2016-06-17T12:28:29.328Z,110
2016-06-17T12:29:29.348Z,110
2016-06-17T12:30:28.710Z,105
2016-06-17T12:31:30.167Z,100
2016-06-17T12:32:28.732Z,95
2016-06-17T12:33:28.720Z,80
2016-06-17T12:34:30.552Z,80
2016-06-17T12:35:28.743Z,80
2016-06-17T12:36:29.997Z,75
2016-06-17T12:37:29.375Z,75
2016-06-17T12:38:28.768Z,65
2016-06-17T12:39:30.022Z,65
2016-06-17T12:40:29.386Z,70
2016-06-17T12:41:29.420Z,75
2016-06-17T12:42:30.032Z,70
2016-06-17T12:43:30.615Z,70
2016-06-17T12:44:30.039Z,65
2016-06-17T12:45:31.153Z,65
2016-06-17T12:46:28.828Z,65
2016-06-17T12:47:30.096Z,65
2016-06-17T12:49:28.807Z,60
2016-06-17T12:50:28.842Z,60
2016-06-17T12:51:28.830Z,65
2016-06-17T12:52:28.849Z,65
2016-06-17T12:53:29.462Z,70
2016-06-17T12:54:29.918Z,75
2016-06-17T12:55:29.468Z,75
2016-06-17T12:56:31.925Z,75
2016-06-17T12:57:28.847Z,75
2016-06-17T12:58:30.667Z,85
2016-06-17T12:59:30.732Z,85
2016-06-17T13:00:30.173Z,90
2016-06-17T13:01:28.923Z,100
2016-06-17T13:02:30.134Z,95
2016-06-17T13:03:28.915Z,90
2016-06-17T13:04:30.234Z,85
2016-06-17T13:05:30.269Z,85
2016-06-17T13:06:29.537Z,85
2016-06-17T13:07:29.350Z,85
2016-06-17T13:08:29.556Z,90
2016-06-17T13:09:28.935Z,75
2016-06-17T13:10:31.442Z,65
2016-06-17T13:11:28.989Z,60
2016-06-17T13:12:30.199Z,55
2016-06-17T13:13:29.558Z,50
2016-06-17T13:14:29.578Z,50
2016-06-17T13:15:29.597Z,50
2016-06-17T13:16:30.557Z,50
2016-06-17T13:17:30.216Z,50
2016-06-17T13:18:29.638Z,50
2016-06-17T13:19:29.595Z,50
2016-06-17T13:20:29.489Z,60
2016-06-17T13:21:29.024Z,55
2016-06-17T13:22:29.637Z,60
2016-06-17T13:23:29.031Z,65
2016-06-17T13:24:29.034Z,65
2016-06-17T13:25:29.022Z,70
2016-06-17T13:26:29.041Z,75
2016-06-17T13:27:30.626Z,75
2016-06-17T13:28:29.048Z,80
2016-06-17T13:29:30.427Z,90
2016-06-17T13:30:29.663Z,90
2016-06-17T13:31:30.293Z,95
2016-06-17T13:32:30.326Z,95
2016-06-17T13:33:29.690Z,95
2016-06-17T13:34:29.069Z,95
2016-06-17T13:35:29.697Z,95
2016-06-17T13:36:29.716Z,95
2016-06-17T13:37:30.329Z,90
2016-06-17T13:38:31.680Z,85
2016-06-17T13:39:30.336Z,85
2016-06-17T13:40:30.745Z,80
2016-06-17T13:41:30.968Z,80
2016-06-17T13:42:30.972Z,75
2016-06-17T13:43:30.349Z,75
2016-06-17T13:44:29.135Z,80
2016-06-17T13:45:30.996Z,70
2016-06-17T13:46:29.142Z,70
2016-06-17T13:47:29.144Z,70
2016-06-17T13:48:29.148Z,75
2016-06-17T13:49:31.874Z,75
2016-06-17T13:50:31.014Z,80
2016-06-17T13:51:30.925Z,85
2016-06-17T13:52:29.803Z,80
2016-06-17T13:53:29.165Z,75
2016-06-17T13:54:30.482Z,75
2016-06-17T13:55:31.110Z,75
2016-06-17T13:56:29.239Z,75
2016-06-17T13:57:29.211Z,70
2016-06-17T13:58:30.467Z,70
2016-06-17T13:59:29.222Z,70
2016-06-17T14:00:29.885Z,65
2016-06-17T14:01:30.469Z,65
2016-06-17T14:02:30.990Z,65
2016-06-17T14:03:29.853Z,65
2016-06-17T14:04:30.700Z,65
2016-06-17T14:05:31.127Z,60
2016-06-17T14:06:30.506Z,60
2016-06-17T14:07:42.374Z,55
2016-06-17T14:08:29.936Z,55
2016-06-17T14:09:29.300Z,55
2016-06-17T14:10:29.913Z,55
2016-06-17T14:11:29.917Z,55
2016-06-17T14:12:29.312Z,55
2016-06-17T14:13:29.455Z,55
2016-06-17T14:14:29.319Z,55
2016-06-17T14:15:29.978Z,55
2016-06-17T14:16:30.575Z,55
2016-06-17T14:17:30.562Z,50
2016-06-17T14:18:31.207Z,50
2016-06-17T14:19:31.257Z,50
2016-06-17T14:20:29.354Z,50
2016-06-17T14:21:29.967Z,50
2016-06-17T14:22:30.097Z,50
2016-06-17T14:23:29.364Z,55
2016-06-17T14:24:32.571Z,55
2016-06-17T14:25:30.653Z,55
2016-06-17T14:26:31.578Z,60
2016-06-17T14:27:30.003Z,60
2016-06-17T14:28:30.023Z,60
2016-06-17T14:29:29.416Z,60
2016-06-17T14:30:30.638Z,65
2016-06-17T14:31:30.659Z,65
2016-06-17T14:32:30.053Z,70
2016-06-17T14:33:30.917Z,70
2016-06-17T14:34:30.046Z,70
2016-06-17T14:35:30.066Z,70
2016-06-17T14:36:29.445Z,70
2016-06-17T14:37:31.808Z,70
2016-06-17T14:38:29.468Z,70
2016-06-17T14:39:30.706Z,65